עמוד ראשי
תמונות לווין תחזית 10-יוםאקליםתחזית ים סופות טרופיות ברקים שדות תעופהשאלות נפוצות עלון אודות
מזג אוויר : אירופה אפריקה אמריקה הצפונית אמריקה הדרומית אסיה אוסטרליה-אוקיאניה אחרים
שפות איש קשר

שטוטגרט, גרמניה

קו רוחב: 48-41N, קו אורך: 009-13E, גובה: 396מטר


METAR: EDDS 041820Z 27006KT CAVOK 03/M03 Q1028 NOSIG
TAF: EDDS 041700Z 0418/0518 27008KT 9999 SCT035 PROB30 TEMPO 0502/0507 BKN010 BECMG 0504/0507 33009KT

זמן: 19:43 (18:43 UTC)

תצפית מזג אוויר נוכחית

הדו"ח נערך לפני 23דקות, בשעה 18:20 UTC
רוח 6קשר מכיוון מערב
טמפרטורת 3 צלסיוס
לחות 65%
לחץ 1028 hPa
ראות 10 קילומטר או יותר
ללא עננים שבסיסם נמוך מ 1500 רגל או קומולונימבוס

שנה יחידות

תחזית

הדו"ח נערך לפני 1 שעות ו 43דקות, בשעה 17:00 UTC
תחזית בתוקף מ 04 ב 18 UTC עד 05 ב 18 UTC
רוח 8קשר מכיוון מערב
ראות 10 קילומטר או יותר
עננים פזורים בגובה 3500רגל
הסתברות 30% :
זמנית מ -
05 ב 02 UTC עד 05 ב 07 UTC
עננים בינוניים בגובה 1000רגל
יעשה מ
05 ב 04 UTC עד 05 ב 07 UTC
רוח 9קשר מכיוון צפון/צפון-מערב
המידע באתר זה מותנה של תניית פטור
מזג אוויר : אירופה אפריקה אמריקה הצפונית אמריקה הדרומית אסיה אוסטרליה-אוקיאניה אחרים
תמונות לווין תחזית 10-יוםאקליםתחזית ים סופות טרופיות ברקים שדות תעופהשאלות נפוצות שפות איש קשר עלון אודות